Time;durP1;ratioP1;P1;durP2;ratioP2;P2;SDS_P1;SDS_P2;PMS_P1;PMS_P2;Temp;Humidity;BMP_temperature;BMP_pressure;BME280_temperature;BME280_humidity;BME280_pressure;Samples;Min_cycle;Max_cycle;Signal;HPM_P1;HPM_P2
2022/07/02 00:02:17;;;;;;;;;;;;;;;23.31;63.17;153517.31;1671745;86;20166;-64
2022/07/02 00:04:46;;;;;;;;;;;;;;;23.30;63.31;153513.38;1671420;86;21028;-64
2022/07/02 00:07:14;;;;;;;;;;;;;;;23.27;63.35;153506.86;1671866;86;20177;-65
2022/07/02 00:09:43;;;;;;;;;;;;;;;23.25;63.52;153500.25;1671479;86;20617;-65
2022/07/02 00:12:12;;;;;;;;;;;;;;;23.21;64.01;153489.78;1644583;87;21066;-65
2022/07/02 00:14:40;;;;;;;;;;;;;;;23.05;65.96;153450.52;1644478;87;20175;-64
2022/07/02 00:17:07;;;;;;;;;;;;;;;22.84;67.01;153396.91;1644577;86;20206;-65
2022/07/02 00:19:35;;;;;;;;;;;;;;;22.70;67.99;153361.58;1615945;86;20271;-64
2022/07/02 00:22:02;;;;;;;;;;;;;;;22.60;68.41;153336.72;1602681;88;22080;-64
2022/07/02 00:27:18;;;;;;;;;;;;;;;22.59;68.25;153335.39;1843477;78;20264;-64
2022/07/02 00:29:56;;;;;;;;;;;;;;;22.58;68.03;153331.50;1818712;79;20171;-64
2022/07/02 00:32:24;;;;;;;;;;;;;;;22.66;67.64;153352.41;1818929;79;21187;-64
2022/07/02 00:34:51;;;;;;;;;;;;;;;22.79;67.11;153383.83;1818561;79;20098;-64
2022/07/02 00:37:18;;;;;;;;;;;;;;;22.88;66.65;153408.69;1818813;79;20129;-65
2022/07/02 00:39:45;;;;;;;;;;;;;;;22.95;66.23;153425.66;1818633;79;20176;-65
2022/07/02 00:42:13;;;;;;;;;;;;;;;23.00;66.01;153437.44;1818947;79;20106;-66
2022/07/02 00:44:40;;;;;;;;;;;;;;;23.04;65.80;153447.91;1775873;79;21129;-66
2022/07/02 00:47:08;;;;;;;;;;;;;;;23.07;65.54;153455.75;1818726;79;20544;-64
2022/07/02 00:49:36;;;;;;;;;;;;;;;23.13;65.21;153471.48;1818664;79;20116;-64
2022/07/02 00:52:04;;;;;;;;;;;;;;;23.17;65.05;153481.94;1818975;79;20122;-65
2022/07/02 00:54:31;;;;;;;;;;;;;;;23.20;65.11;153488.45;1818522;79;20437;-65
2022/07/02 00:56:58;;;;;;;;;;;;;;;23.17;65.31;153481.94;1818783;78;21130;-66
2022/07/02 00:59:25;;;;;;;;;;;;;;;23.15;65.46;153476.72;1818654;79;20166;-65
2022/07/02 01:01:52;;;;;;;;;;;;;;;23.12;65.56;153468.88;1818533;79;20122;-63
2022/07/02 01:04:19;;;;;;;;;;;;;;;23.09;65.68;153459.69;1818824;79;20125;-65
2022/07/02 01:06:46;;;;;;;;;;;;;;;23.05;66.16;153450.52;1818320;79;20189;-64
2022/07/02 01:11:59;;;;;;;;;;;;;;;23.00;66.61;153437.44;1791331;79;20077;-65
2022/07/02 01:14:27;;;;;;;;;;;;;;;22.98;66.92;153432.22;1789940;80;20197;-65
2022/07/02 01:16:54;;;;;;;;;;;;;;;22.94;67.09;153421.77;1789720;80;20354;-65
2022/07/02 01:19:22;;;;;;;;;;;;;;;22.89;67.42;153411.30;1790000;80;20141;-65
2022/07/02 01:22:12;;;;;;;;;;;;;;;22.85;67.70;153399.50;1789575;80;21250;-65
2022/07/02 01:24:39;;;;;;;;;;;;;;;22.79;68.02;153385.11;1791206;77;20434;-65
2022/07/02 01:27:07;;;;;;;;;;;;;;;22.73;68.63;153370.70;1790850;80;20426;-65
2022/07/02 01:29:34;;;;;;;;;;;;;;;22.69;69.15;153358.97;1791911;80;20318;-65
2022/07/02 01:32:02;;;;;;;;;;;;;;;22.64;69.90;153345.84;1791891;80;20189;-63
2022/07/02 01:34:29;;;;;;;;;;;;;;;22.63;70.78;153343.23;1792003;80;21259;-63
2022/07/02 01:36:55;;;;;;;;;;;;;;;22.64;71.17;153345.84;1727378;81;20092;-63
2022/07/02 01:39:23;;;;;;;;;;;;;;;22.65;71.40;153349.80;1740272;82;20199;-64
2022/07/02 01:41:50;;;;;;;;;;;;;;;22.65;71.42;153349.80;1740228;82;20679;-64
2022/07/02 01:44:17;;;;;;;;;;;;;;;22.67;71.58;153353.73;1740330;82;20174;-64
2022/07/02 01:46:44;;;;;;;;;;;;;;;22.66;71.59;153351.08;1740100;82;21236;-63
2022/07/02 01:49:11;;;;;;;;;;;;;;;22.65;71.73;153348.47;1740463;82;20167;-64
2022/07/02 01:51:37;;;;;;;;;;;;;;;22.65;71.71;153348.47;1740240;82;20471;-64
2022/07/02 01:54:04;;;;;;;;;;;;;;;22.64;71.86;153345.84;1740135;82;20436;-64
2022/07/02 01:56:34;;;;;;;;;;;;;;;22.61;71.99;153340.63;1740053;82;20211;-63
2022/07/02 01:59:01;;;;;;;;;;;;;;;22.61;71.84;153340.63;1740324;82;21199;-63
2022/07/02 02:01:28;;;;;;;;;;;;;;;22.61;71.52;153340.63;1740122;82;20174;-62
2022/07/02 02:03:55;;;;;;;;;;;;;;;22.63;71.32;153343.23;1740161;82;20144;-63
2022/07/02 02:06:22;;;;;;;;;;;;;;;22.60;71.18;153338.00;1740199;82;20523;-62
2022/07/02 02:08:48;;;;;;;;;;;;;;;22.59;71.00;153335.39;1740298;82;20413;-63
2022/07/02 02:11:16;;;;;;;;;;;;;;;22.54;70.89;153322.31;1738300;82;21856;-64
2022/07/02 02:13:43;;;;;;;;;;;;;;;22.54;70.82;153322.31;1737330;82;20195;-63
2022/07/02 02:16:10;;;;;;;;;;;;;;;22.56;70.34;153326.27;1737222;82;20150;-63
2022/07/02 02:18:36;;;;;;;;;;;;;;;22.57;69.60;153330.16;1737367;82;20107;-63
2022/07/02 02:21:04;;;;;;;;;;;;;;;22.60;68.63;153338.00;1737397;82;20155;-63
2022/07/02 02:23:31;;;;;;;;;;;;;;;22.68;67.76;153356.34;1737282;82;21262;-63
2022/07/02 02:25:57;;;;;;;;;;;;;;;22.74;67.05;153372.03;1738633;81;20162;-63
2022/07/02 02:28:24;;;;;;;;;;;;;;;22.80;66.38;153387.72;1743944;82;20214;-63
2022/07/02 02:30:51;;;;;;;;;;;;;;;22.85;65.24;153400.80;1743824;82;20230;-63
2022/07/02 02:33:18;;;;;;;;;;;;;;;22.99;64.24;153434.83;1743917;82;20487;-64
2022/07/02 02:35:45;;;;;;;;;;;;;;;23.16;63.67;153479.33;1743699;82;21258;-63
2022/07/02 02:38:12;;;;;;;;;;;;;;;23.31;63.96;153516.00;1743838;82;20458;-64
2022/07/02 02:40:38;;;;;;;;;;;;;;;23.39;64.46;153536.97;1743799;82;20470;-64
2022/07/02 02:43:05;;;;;;;;;;;;;;;23.42;65.22;153543.47;1743825;82;20486;-64
2022/07/02 02:45:32;;;;;;;;;;;;;;;23.38;65.63;153533.02;1743689;82;20213;-64
2022/07/02 02:47:59;;;;;;;;;;;;;;;23.34;66.07;153522.55;1743639;82;21793;-66
2022/07/02 02:50:26;;;;;;;;;;;;;;;23.36;64.25;153527.78;1743651;82;20229;-64
2022/07/02 02:52:52;;;;;;;;;;;;;;;23.40;63.85;153539.58;1743751;81;20210;-65
2022/07/02 02:55:20;;;;;;;;;;;;;;;23.44;63.50;153550.03;1743677;82;20149;-65
2022/07/02 02:57:46;;;;;;;;;;;;;;;23.46;63.21;153555.27;1743486;82;20465;-64
2022/07/02 03:00:14;;;;;;;;;;;;;;;23.52;63.32;153568.34;1743483;82;21866;-64
2022/07/02 03:02:40;;;;;;;;;;;;;;;23.54;63.66;153573.56;1743371;82;20826;-64
2022/07/02 03:05:07;;;;;;;;;;;;;;;23.54;64.54;153573.56;1743582;82;20161;-65
2022/07/02 03:07:34;;;;;;;;;;;;;;;23.51;65.58;153567.06;1743662;82;20204;-65
2022/07/02 03:10:01;;;;;;;;;;;;;;;23.43;66.70;153547.42;1743883;82;20198;-65
2022/07/02 03:12:28;;;;;;;;;;;;;;;23.32;67.66;153518.61;1757510;81;21104;-65
2022/07/02 03:14:55;;;;;;;;;;;;;;;23.23;68.48;153495.02;1740813;82;20523;-65
2022/07/02 03:17:22;;;;;;;;;;;;;;;23.16;69.11;153479.33;1740988;82;20134;-65
2022/07/02 03:19:49;;;;;;;;;;;;;;;23.07;69.91;153455.75;1740948;82;20158;-65
2022/07/02 03:22:16;;;;;;;;;;;;;;;22.96;70.60;153428.28;1741180;82;20199;-66
2022/07/02 03:24:43;;;;;;;;;;;;;;;22.94;70.79;153421.77;1740863;82;21310;-65
2022/07/02 03:27:10;;;;;;;;;;;;;;;22.96;69.35;153426.98;1745276;82;20458;-65
2022/07/02 03:29:37;;;;;;;;;;;;;;;23.10;69.72;153463.64;1749048;82;20428;-64
2022/07/02 03:32:04;;;;;;;;;;;;;;;23.20;68.71;153487.17;1749332;82;20154;-65
2022/07/02 03:34:31;;;;;;;;;;;;;;;23.30;68.33;153513.38;1749544;82;20480;-65
2022/07/02 03:36:58;;;;;;;;;;;;;;;23.41;68.10;153542.19;1749188;82;21830;-65
2022/07/02 03:39:25;;;;;;;;;;;;;;;23.52;67.82;153569.67;1748995;82;20167;-65
2022/07/02 03:41:51;;;;;;;;;;;;;;;23.64;67.66;153599.78;1749037;82;20230;-63
2022/07/02 03:44:18;;;;;;;;;;;;;;;23.79;67.61;153636.45;1749325;82;20195;-63
2022/07/02 03:46:45;;;;;;;;;;;;;;;23.88;67.87;153659.98;1749095;82;20230;-64
2022/07/02 03:49:11;;;;;;;;;;;;;;;23.98;67.84;153686.16;1749096;82;21239;-64
2022/07/02 03:51:40;;;;;;;;;;;;;;;24.06;67.51;153704.56;1749019;82;20600;-64
2022/07/02 03:54:07;;;;;;;;;;;;;;;24.13;67.53;153724.22;1749208;82;20209;-64
2022/07/02 03:56:34;;;;;;;;;;;;;;;24.22;67.77;153745.14;1749065;82;20194;-64
2022/07/02 03:59:02;;;;;;;;;;;;;;;24.34;68.18;153775.25;1749166;82;20139;-64
2022/07/02 04:01:29;;;;;;;;;;;;;;;24.49;68.65;153814.56;1749113;82;21233;-64
2022/07/02 04:03:55;;;;;;;;;;;;;;;24.59;68.78;153840.72;1748990;82;20095;-64
2022/07/02 04:06:22;;;;;;;;;;;;;;;24.70;68.99;153866.95;1749173;82;20482;-63
2022/07/02 04:08:49;;;;;;;;;;;;;;;24.81;68.95;153895.78;1748946;82;20185;-64
2022/07/02 04:11:17;;;;;;;;;;;;;;;24.93;68.84;153925.91;1747035;82;20927;-64
2022/07/02 04:13:44;;;;;;;;;;;;;;;25.02;68.79;153949.52;1745958;82;21120;-64
2022/07/02 04:16:11;;;;;;;;;;;;;;;25.14;68.59;153979.66;1745883;82;20217;-64
2022/07/02 04:18:39;;;;;;;;;;;;;;;25.22;68.07;153999.31;1745630;81;20233;-64
2022/07/02 04:21:05;;;;;;;;;;;;;;;25.30;67.86;154020.25;1745920;81;20174;-64
2022/07/02 04:23:32;;;;;;;;;;;;;;;25.43;67.79;154053.00;1745968;82;20498;-63
2022/07/02 04:25:59;;;;;;;;;;;;;;;25.58;67.48;154089.77;1745932;81;22102;-63
2022/07/02 04:28:26;;;;;;;;;;;;;;;25.69;67.38;154117.28;1768563;81;20521;-63
2022/07/02 04:30:52;;;;;;;;;;;;;;;25.79;67.46;154142.19;1769919;81;20453;-63
2022/07/02 04:33:19;;;;;;;;;;;;;;;25.82;67.95;154150.03;1770266;81;20196;-63
2022/07/02 04:35:46;;;;;;;;;;;;;;;25.83;68.10;154152.66;1770113;79;20204;-63
2022/07/02 04:38:13;;;;;;;;;;;;;;;25.79;68.55;154143.47;1770002;81;21224;-63
2022/07/02 04:40:39;;;;;;;;;;;;;;;25.79;68.57;154142.19;1769857;81;20473;-63
2022/07/02 04:43:08;;;;;;;;;;;;;;;25.81;68.08;154147.42;1769929;81;20394;-63
2022/07/02 04:45:35;;;;;;;;;;;;;;;25.77;68.06;154138.23;1770047;81;20200;-63
2022/07/02 04:48:01;;;;;;;;;;;;;;;25.76;67.90;154134.33;1769879;79;20136;-62
2022/07/02 04:50:28;;;;;;;;;;;;;;;25.83;67.63;154152.66;1770153;81;22069;-63
2022/07/02 04:52:55;;;;;;;;;;;;;;;25.86;67.07;154161.84;1769722;81;20204;-62
2022/07/02 04:55:22;;;;;;;;;;;;;;;25.87;66.81;154163.14;1769835;81;20240;-62
2022/07/02 04:57:49;;;;;;;;;;;;;;;25.95;66.69;154184.09;1769549;81;20231;-63
2022/07/02 05:00:16;;;;;;;;;;;;;;;26.12;66.33;154227.38;1768830;80;20108;-63
2022/07/02 05:02:42;;;;;;;;;;;;;;;26.19;65.94;154244.44;1759809;80;21082;-64
2022/07/02 05:05:09;;;;;;;;;;;;;;;26.15;65.49;154233.91;1749550;81;20195;-65
2022/07/02 05:07:35;;;;;;;;;;;;;;;26.02;65.72;154202.47;1749685;82;20118;-65
2022/07/02 05:10:03;;;;;;;;;;;;;;;26.05;65.90;154207.72;1752698;81;20161;-64
2022/07/02 05:12:30;;;;;;;;;;;;;;;26.11;65.29;154223.42;1770288;81;20205;-64
2022/07/02 05:14:57;;;;;;;;;;;;;;;26.18;65.26;154241.81;1770193;81;21223;-64
2022/07/02 05:17:24;;;;;;;;;;;;;;;26.28;64.89;154266.72;1770191;81;20148;-64
2022/07/02 05:19:50;;;;;;;;;;;;;;;26.28;64.33;154268.06;1770148;81;20501;-64
2022/07/02 05:22:17;;;;;;;;;;;;;;;26.22;64.49;154251.00;1770182;81;20197;-65
2022/07/02 05:24:44;;;;;;;;;;;;;;;26.22;64.84;154251.00;1770145;81;20250;-64
2022/07/02 05:27:12;;;;;;;;;;;;;;;26.20;64.81;154245.77;1770091;81;21230;-64
2022/07/02 05:29:39;;;;;;;;;;;;;;;26.15;64.77;154233.91;1769977;81;20469;-64
2022/07/02 05:32:07;;;;;;;;;;;;;;;26.10;64.60;154222.14;1770174;81;20157;-65
2022/07/02 05:34:34;;;;;;;;;;;;;;;26.05;64.42;154207.72;1770582;81;20161;-65
2022/07/02 05:37:01;;;;;;;;;;;;;;;25.95;64.72;154184.09;1770123;81;20192;-65
2022/07/02 05:39:28;;;;;;;;;;;;;;;25.85;65.63;154159.19;1770465;81;20568;-64
2022/07/02 05:41:55;;;;;;;;;;;;;;;25.84;66.47;154155.28;1770144;81;20161;-65
2022/07/02 05:44:22;;;;;;;;;;;;;;;25.82;66.61;154150.03;1770197;81;20492;-65
2022/07/02 05:46:48;;;;;;;;;;;;;;;25.79;66.80;154143.47;1770001;81;20164;-63
2022/07/02 05:49:15;;;;;;;;;;;;;;;25.88;67.06;154167.09;1770079;81;20204;-63
2022/07/02 05:51:42;;;;;;;;;;;;;;;25.99;67.21;154194.61;1769872;81;22077;-63
2022/07/02 05:54:09;;;;;;;;;;;;;;;26.09;66.93;154218.19;1770052;81;20259;-64
2022/07/02 05:56:35;;;;;;;;;;;;;;;26.05;67.01;154207.72;1770134;81;20228;-63
2022/07/02 05:59:02;;;;;;;;;;;;;;;26.04;67.14;154206.38;1769846;81;20445;-63
2022/07/02 06:01:29;;;;;;;;;;;;;;;26.09;67.13;154219.52;1770165;81;20216;-63
2022/07/02 06:03:57;;;;;;;;;;;;;;;26.11;67.61;154223.42;1769978;79;20179;-63
2022/07/02 06:09:09;;;;;;;;;;;;;;;26.33;67.40;154279.88;1769999;81;20218;-63
2022/07/02 06:11:36;;;;;;;;;;;;;;;26.37;67.59;154290.34;1766041;81;20208;-63
2022/07/02 06:14:03;;;;;;;;;;;;;;;26.46;67.71;154312.64;1765298;81;20197;-63
2022/07/02 06:16:30;;;;;;;;;;;;;;;26.49;67.28;154320.50;1765239;81;21133;-63
2022/07/02 06:18:56;;;;;;;;;;;;;;;26.48;66.34;154316.55;1765006;81;20168;-63
2022/07/02 06:21:23;;;;;;;;;;;;;;;26.37;66.25;154289.02;1765630;81;20144;-63
2022/07/02 06:23:50;;;;;;;;;;;;;;;26.29;65.80;154270.67;1765445;81;20195;-63
2022/07/02 06:26:16;;;;;;;;;;;;;;;26.28;66.08;154268.06;1765461;81;20228;-64
2022/07/02 06:28:43;;;;;;;;;;;;;;;26.26;65.34;154262.81;1759222;81;21126;-64
2022/07/02 06:31:10;;;;;;;;;;;;;;;26.24;65.44;154256.25;1757868;81;20211;-64
2022/07/02 06:33:39;;;;;;;;;;;;;;;26.25;65.33;154260.20;1758074;81;20185;-65
2022/07/02 06:36:07;;;;;;;;;;;;;;;26.35;65.45;154285.11;1758035;80;20315;-65
2022/07/02 06:38:34;;;;;;;;;;;;;;;26.45;65.02;154311.31;1757900;81;20184;-64
2022/07/02 06:41:01;;;;;;;;;;;;;;;26.47;64.32;154315.27;1757931;81;21294;-64
2022/07/02 06:43:28;;;;;;;;;;;;;;;26.47;64.14;154315.27;1757905;81;20192;-64
2022/07/02 06:45:55;;;;;;;;;;;;;;;26.46;64.08;154313.92;1757808;81;20187;-64
2022/07/02 06:48:22;;;;;;;;;;;;;;;26.49;63.21;154320.50;1753267;81;20219;-65
2022/07/02 06:50:48;;;;;;;;;;;;;;;26.51;62.89;154325.73;1746216;81;20187;-65
2022/07/02 06:53:15;;;;;;;;;;;;;;;26.53;62.57;154330.98;1759473;80;21223;-65
2022/07/02 06:55:42;;;;;;;;;;;;;;;26.58;62.42;154342.78;1759375;81;20176;-64
2022/07/02 06:58:09;;;;;;;;;;;;;;;26.67;62.82;154366.38;1759654;81;20132;-65
2022/07/02 07:00:35;;;;;;;;;;;;;;;26.80;61.55;154399.16;1759353;81;20440;-65
2022/07/02 07:03:03;;;;;;;;;;;;;;;26.87;61.69;154417.59;1759640;81;20160;-65
2022/07/02 07:05:32;;;;;;;;;;;;;;;27.02;60.90;154455.62;1759741;80;21248;-65
2022/07/02 07:07:58;;;;;;;;;;;;;;;27.11;60.68;154476.58;1759389;81;20180;-64
2022/07/02 07:10:27;;;;;;;;;;;;;;;27.13;59.72;154483.16;1759419;81;20616;-65
2022/07/02 07:12:53;;;;;;;;;;;;;;;27.03;59.75;154458.23;1759310;81;20244;-64
2022/07/02 07:15:20;;;;;;;;;;;;;;;26.95;60.12;154435.94;1759412;81;20225;-64
2022/07/02 07:17:47;;;;;;;;;;;;;;;26.95;59.98;154435.94;1759399;81;22139;-64
2022/07/02 07:20:16;;;;;;;;;;;;;;;27.02;59.52;154455.62;1759034;81;20464;-65
2022/07/02 07:22:43;;;;;;;;;;;;;;;27.15;59.34;154487.06;1759122;80;20448;-65
2022/07/02 07:25:10;;;;;;;;;;;;;;;27.32;58.28;154530.38;1759203;81;20473;-65
2022/07/02 07:27:37;;;;;;;;;;;;;;;27.43;57.67;154559.22;1761322;81;20200;-64
2022/07/02 07:30:05;;;;;;;;;;;;;;;27.52;56.59;154580.23;1770048;81;21251;-64
2022/07/02 07:32:31;;;;;;;;;;;;;;;27.54;56.75;154585.53;1770027;81;20223;-64
2022/07/02 07:34:59;;;;;;;;;;;;;;;27.62;56.32;154605.16;1770013;81;20157;-64
2022/07/02 07:37:25;;;;;;;;;;;;;;;27.63;55.76;154609.13;1770064;81;20582;-64
2022/07/02 07:39:52;;;;;;;;;;;;;;;27.61;55.97;154603.88;1769995;81;20200;-64
2022/07/02 07:42:19;;;;;;;;;;;;;;;27.64;56.18;154610.47;1770165;81;21229;-64
2022/07/02 07:44:45;;;;;;;;;;;;;;;27.66;55.81;154615.70;1769898;81;20211;-65
2022/07/02 07:47:12;;;;;;;;;;;;;;;27.60;55.41;154601.25;1770239;81;20964;-64
2022/07/02 07:49:39;;;;;;;;;;;;;;;27.54;55.84;154585.53;1770088;81;20193;-64
2022/07/02 07:52:06;;;;;;;;;;;;;;;27.55;56.30;154588.16;1770069;81;20173;-65
2022/07/02 07:54:32;;;;;;;;;;;;;;;27.59;56.30;154598.64;1770081;81;21291;-65
2022/07/02 07:56:59;;;;;;;;;;;;;;;27.57;56.62;154593.39;1770010;81;20144;-65
2022/07/02 07:59:26;;;;;;;;;;;;;;;27.60;56.67;154601.25;1770049;81;20503;-63
2022/07/02 08:01:53;;;;;;;;;;;;;;;27.59;56.84;154598.64;1769668;81;20480;-63
2022/07/02 08:04:20;;;;;;;;;;;;;;;27.60;57.04;154601.25;1769907;81;20527;-64
2022/07/02 08:06:46;;;;;;;;;;;;;;;27.52;56.98;154581.58;1769582;81;21120;-65
2022/07/02 08:09:13;;;;;;;;;;;;;;;27.44;57.17;154561.84;1769518;81;20227;-64
2022/07/02 08:11:40;;;;;;;;;;;;;;;27.41;57.20;154553.97;1778581;80;20428;-64
2022/07/02 08:14:07;;;;;;;;;;;;;;;27.42;57.70;154556.59;1780711;80;20136;-64
2022/07/02 08:16:33;;;;;;;;;;;;;;;27.47;57.96;154568.42;1780560;80;20140;-64
2022/07/02 08:19:00;;;;;;;;;;;;;;;27.52;57.41;154580.23;1780366;80;23157;-63
2022/07/02 08:21:27;;;;;;;;;;;;;;;27.51;56.98;154578.95;1780309;80;20175;-63
2022/07/02 08:23:54;;;;;;;;;;;;;;;27.53;56.98;154584.19;1780397;80;20108;-63
2022/07/02 08:26:21;;;;;;;;;;;;;;;27.59;57.33;154598.64;1780542;80;20440;-63
2022/07/02 08:28:47;;;;;;;;;;;;;;;27.66;55.66;154616.98;1775408;80;20196;-63
2022/07/02 08:31:14;;;;;;;;;;;;;;;27.76;55.37;154640.63;1771463;81;21146;-62
2022/07/02 08:33:41;;;;;;;;;;;;;;;27.82;55.31;154656.36;1771733;81;20152;-63
2022/07/02 08:36:09;;;;;;;;;;;;;;;27.87;54.23;154669.47;1768342;81;20093;-62
2022/07/02 08:38:36;;;;;;;;;;;;;;;27.92;54.47;154682.59;1744834;81;20130;-62
2022/07/02 08:41:03;;;;;;;;;;;;;;;28.01;55.11;154706.23;1740724;82;20162;-62
2022/07/02 08:43:30;;;;;;;;;;;;;;;28.09;53.99;154725.92;1740939;82;21182;-62
2022/07/02 08:45:56;;;;;;;;;;;;;;;28.13;53.56;154735.06;1719950;82;20432;-64
2022/07/02 08:48:23;;;;;;;;;;;;;;;28.17;53.23;154745.61;1741082;82;20428;-64
2022/07/02 08:50:50;;;;;;;;;;;;;;;28.18;52.15;154748.23;1740886;82;20163;-64
2022/07/02 08:53:19;;;;;;;;;;;;;;;28.15;52.74;154741.70;1741170;82;20179;-65
2022/07/02 08:55:45;;;;;;;;;;;;;;;28.20;52.91;154752.19;1740996;82;21810;-64
2022/07/02 08:58:13;;;;;;;;;;;;;;;28.17;52.31;154745.61;1741025;82;20152;-65
2022/07/02 09:00:40;;;;;;;;;;;;;;;28.16;51.62;154744.33;1741082;82;20171;-65
2022/07/02 09:03:08;;;;;;;;;;;;;;;28.15;52.09;154740.31;1741000;82;20179;-65
2022/07/02 09:05:37;;;;;;;;;;;;;;;28.09;52.17;154724.58;1741302;82;20134;-66
2022/07/02 09:08:04;;;;;;;;;;;;;;;28.00;51.05;154703.61;1740828;82;21182;-65
2022/07/02 09:10:32;;;;;;;;;;;;;;;27.98;51.81;154698.36;1723323;82;20192;-65
2022/07/02 09:12:59;;;;;;;;;;;;;;;28.03;52.39;154711.47;1751833;82;20162;-65
2022/07/02 09:15:26;;;;;;;;;;;;;;;28.11;52.13;154729.83;1751842;81;20205;-65
2022/07/02 09:17:52;;;;;;;;;;;;;;;28.20;52.33;154753.53;1751734;82;20228;-65
2022/07/02 09:20:19;;;;;;;;;;;;;;;28.24;52.38;154764.02;1751798;82;21215;-65
2022/07/02 09:22:49;;;;;;;;;;;;;;;28.26;51.36;154769.27;1751551;82;20457;-65
2022/07/02 09:25:18;;;;;;;;;;;;;;;28.22;51.90;154757.44;1751774;82;20504;-65
2022/07/02 09:27:45;;;;;;;;;;;;;;;28.19;51.93;154750.91;1751563;82;20469;-64
2022/07/02 09:30:14;;;;;;;;;;;;;;;28.19;52.33;154750.91;1751728;80;20194;-65
2022/07/02 09:32:43;;;;;;;;;;;;;;;28.19;52.63;154750.91;1751586;82;21191;-64
2022/07/02 09:35:21;;;;;;;;;;;;;;;28.22;52.56;154757.44;1751591;82;20222;-65
2022/07/02 09:37:49;;;;;;;;;;;;;;;28.18;51.18;154746.94;1751743;82;20149;-65
2022/07/02 09:40:16;;;;;;;;;;;;;;;28.17;51.78;154745.61;1751930;82;20177;-65
2022/07/02 09:42:47;;;;;;;;;;;;;;;28.18;50.96;154746.94;1751617;82;20205;-65
2022/07/02 09:45:14;;;;;;;;;;;;;;;28.19;51.48;154750.91;1752236;82;20346;-66
2022/07/02 09:47:48;;;;;;;;;;;;;;;28.21;51.43;154756.16;1751779;82;20189;-66
2022/07/02 09:50:13;;;;;;;;;;;;;;;28.26;50.58;154769.27;1751957;82;20236;-66
2022/07/02 09:52:53;;;;;;;;;;;;;;;28.29;49.89;154777.12;1751762;82;20482;-66
2022/07/02 09:55:22;;;;;;;;;;;;;;;28.36;49.08;154792.88;1751984;82;20212;-65
2022/07/02 09:57:53;;;;;;;;;;;;;;;28.40;48.47;154803.36;1747999;81;21252;-65
2022/07/02 10:00:20;;;;;;;;;;;;;;;28.44;48.53;154813.89;1751741;82;20233;-65
2022/07/02 10:02:52;;;;;;;;;;;;;;;28.48;48.73;154824.39;1751727;81;20227;-65
2022/07/02 10:05:26;;;;;;;;;;;;;;;28.52;48.66;154834.88;1751894;82;20189;-66
2022/07/02 10:07:54;;;;;;;;;;;;;;;28.57;48.56;154847.98;1751843;82;20241;-66
2022/07/02 10:10:38;;;;;;;;;;;;;;;28.61;47.94;154857.19;1757696;81;21740;-66
2022/07/02 10:13:10;;;;;;;;;;;;;;;28.64;47.60;154865.06;1771607;80;20417;-66
2022/07/02 10:15:43;;;;;;;;;;;;;;;28.68;47.90;154874.27;1771845;81;20168;-65
2022/07/02 10:18:09;;;;;;;;;;;;;;;28.65;47.18;154866.41;1771950;81;20176;-64
2022/07/02 10:20:36;;;;;;;;;;;;;;;28.63;47.32;154861.11;1771882;81;20480;-65
2022/07/02 10:23:05;;;;;;;;;;;;;;;28.65;47.45;154866.41;1771633;81;20873;-64
2022/07/02 10:25:32;;;;;;;;;;;;;;;28.69;47.54;154876.89;1764975;81;20128;-66
2022/07/02 10:27:59;;;;;;;;;;;;;;;28.74;47.15;154890.00;1771377;81;20401;-65
2022/07/02 10:30:32;;;;;;;;;;;;;;;28.74;47.20;154891.34;1771405;80;20458;-65
2022/07/02 10:33:21;;;;;;;;;;;;;;;28.71;47.30;154882.14;1771711;81;20442;-65
2022/07/02 10:35:49;;;;;;;;;;;;;;;28.67;46.47;154871.66;1745037;82;21174;-65
2022/07/02 10:38:15;;;;;;;;;;;;;;;28.66;46.24;154870.31;1763761;81;20436;-65
2022/07/02 10:40:46;;;;;;;;;;;;;;;28.64;45.41;154865.06;1771648;81;20191;-65
2022/07/02 10:43:17;;;;;;;;;;;;;;;28.62;45.82;154858.48;1771505;81;20409;-66
2022/07/02 10:45:44;;;;;;;;;;;;;;;28.63;46.05;154861.11;1771643;81;20156;-66
2022/07/02 10:48:14;;;;;;;;;;;;;;;28.58;45.68;154849.33;1771736;81;21236;-66
2022/07/02 10:50:45;;;;;;;;;;;;;;;28.56;45.51;154844.08;1771599;81;20452;-67
2022/07/02 10:53:19;;;;;;;;;;;;;;;28.55;45.16;154842.75;1771794;81;20089;-67
2022/07/02 10:55:57;;;;;;;;;;;;;;;28.52;45.04;154833.59;1771487;81;20263;-66
2022/07/02 10:58:25;;;;;;;;;;;;;;;28.47;45.88;154820.44;1771882;81;20583;-65
2022/07/02 11:00:52;;;;;;;;;;;;;;;28.46;46.08;154819.14;1771611;81;21253;-65
2022/07/02 11:03:26;;;;;;;;;;;;;;;28.48;45.46;154824.39;1771258;80;20188;-65
2022/07/02 11:06:02;;;;;;;;;;;;;;;28.47;45.02;154821.77;1771544;81;20123;-65
2022/07/02 11:08:45;;;;;;;;;;;;;;;28.46;45.51;154819.14;1771556;80;20097;-65
2022/07/02 11:11:17;;;;;;;;;;;;;;;28.50;44.87;154828.30;1752271;81;20209;-65
2022/07/02 11:13:46;;;;;;;;;;;;;;;28.48;43.48;154824.39;1740275;81;22141;-65
2022/07/02 11:16:22;;;;;;;;;;;;;;;28.43;43.89;154812.56;1740575;82;20241;-65
2022/07/02 11:18:49;;;;;;;;;;;;;;;28.42;43.28;154808.66;1740394;82;20182;-66
2022/07/02 11:21:16;;;;;;;;;;;;;;;28.42;42.62;154808.66;1740556;82;20161;-66
2022/07/02 11:23:43;;;;;;;;;;;;;;;28.39;43.03;154800.73;1740141;82;20561;-66
2022/07/02 11:26:10;;;;;;;;;;;;;;;28.38;42.78;154799.44;1740146;82;21235;-65
2022/07/02 11:28:37;;;;;;;;;;;;;;;28.39;41.50;154800.73;1739927;82;20138;-65
2022/07/02 11:31:04;;;;;;;;;;;;;;;28.40;40.85;154803.36;1740114;82;20205;-65
2022/07/02 11:33:32;;;;;;;;;;;;;;;28.39;40.55;154800.73;1740532;82;20415;-65
2022/07/02 11:35:59;;;;;;;;;;;;;;;28.39;40.74;154800.73;1740383;82;20202;-65
2022/07/02 11:38:30;;;;;;;;;;;;;;;28.36;41.07;154794.20;1740407;82;21231;-65
2022/07/02 11:40:57;;;;;;;;;;;;;;;28.30;40.99;154779.75;1739393;82;20505;-65
2022/07/02 11:43:23;;;;;;;;;;;;;;;28.25;41.63;154766.64;1740225;82;20205;-65
2022/07/02 11:45:50;;;;;;;;;;;;;;;28.23;41.35;154761.39;1740300;82;20459;-67
2022/07/02 11:48:20;;;;;;;;;;;;;;;28.22;41.39;154757.44;1740339;82;20201;-66
2022/07/02 11:50:55;;;;;;;;;;;;;;;28.21;41.25;154756.16;1739778;81;21964;-65
2022/07/02 11:53:22;;;;;;;;;;;;;;;28.20;41.23;154753.53;1740612;82;20446;-65
2022/07/02 11:55:48;;;;;;;;;;;;;;;28.24;41.24;154762.69;1740382;82;20229;-65
2022/07/02 11:58:15;;;;;;;;;;;;;;;28.29;41.48;154777.12;1740210;82;20186;-65
2022/07/02 12:00:42;;;;;;;;;;;;;;;28.30;41.15;154779.75;1740462;82;20187;-64
2022/07/02 12:03:09;;;;;;;;;;;;;;;28.30;41.38;154779.75;1740538;82;21110;-64
2022/07/02 12:05:36;;;;;;;;;;;;;;;28.32;41.49;154783.72;1740347;82;20200;-64
2022/07/02 12:08:04;;;;;;;;;;;;;;;28.33;41.67;154785.00;1740151;82;20916;-65
2022/07/02 12:10:40;;;;;;;;;;;;;;;28.29;42.38;154777.12;1744678;82;20200;-65
2022/07/02 12:13:10;;;;;;;;;;;;;;;28.29;42.67;154775.80;1753315;81;20139;-65
2022/07/02 12:15:46;;;;;;;;;;;;;;;28.29;43.09;154777.12;1771311;80;22753;-65
2022/07/02 12:18:20;;;;;;;;;;;;;;;28.26;43.08;154769.27;1748491;81;20178;-65
2022/07/02 12:20:47;;;;;;;;;;;;;;;28.21;42.95;154756.16;1740737;82;20149;-64
2022/07/02 12:23:14;;;;;;;;;;;;;;;28.19;43.39;154749.56;1740821;82;20135;-64
2022/07/02 12:25:48;;;;;;;;;;;;;;;28.18;43.71;154748.23;1740942;82;20432;-64
2022/07/02 12:30:57;;;;;;;;;;;;;;;28.13;43.70;154736.41;1714236;80;20437;-65
2022/07/02 12:33:31;;;;;;;;;;;;;;;28.11;43.26;154729.83;1779902;80;20195;-65
2022/07/02 12:36:05;;;;;;;;;;;;;;;28.08;42.35;154721.97;1779976;80;20483;-64
2022/07/02 12:38:43;;;;;;;;;;;;;;;28.03;42.51;154711.47;1780147;80;20143;-64
2022/07/02 12:41:10;;;;;;;;;;;;;;;28.05;43.91;154714.09;1779772;80;21130;-64
2022/07/02 12:43:37;;;;;;;;;;;;;;;28.10;44.47;154727.20;1779792;80;20219;-64
2022/07/02 12:46:05;;;;;;;;;;;;;;;28.09;44.19;154725.92;1779333;80;20221;-65
2022/07/02 12:48:43;;;;;;;;;;;;;;;28.06;45.18;154716.72;1779862;80;20450;-66
2022/07/02 12:51:11;;;;;;;;;;;;;;;28.05;44.81;154714.09;1779960;80;20092;-65